createdAt,value
2023-03-17T00:01:10.851Z,2.40
2023-03-17T00:03:40.742Z,3.22
2023-03-17T00:06:16.196Z,2.90
2023-03-17T00:08:43.651Z,3.22
2023-03-17T00:11:13.758Z,2.72
2023-03-17T00:13:41.749Z,3.10
2023-03-17T00:16:16.978Z,2.42
2023-03-17T00:18:44.721Z,1.60
2023-03-17T00:21:16.755Z,2.20
2023-03-17T00:23:51.740Z,2.90
2023-03-17T00:26:19.652Z,2.50
2023-03-17T00:28:46.711Z,2.33
2023-03-17T00:31:21.255Z,2.15
2023-03-17T00:33:49.516Z,2.97
2023-03-17T00:36:21.493Z,2.53
2023-03-17T00:38:48.682Z,2.78
2023-03-17T00:41:15.221Z,2.95
2023-03-17T00:43:42.037Z,2.50
2023-03-17T00:46:35.619Z,2.42
2023-03-17T00:49:03.631Z,2.00
2023-03-17T00:51:30.180Z,1.90
2023-03-17T00:53:57.107Z,2.13
2023-03-17T00:56:23.769Z,2.72
2023-03-17T00:58:50.517Z,2.05
2023-03-17T01:01:18.468Z,2.30
2023-03-17T01:03:45.856Z,3.03
2023-03-17T01:06:14.777Z,2.50
2023-03-17T01:08:42.221Z,2.67
2023-03-17T01:11:21.571Z,3.28
2023-03-17T01:13:48.354Z,2.67
2023-03-17T01:16:15.749Z,2.20
2023-03-17T01:18:43.550Z,2.47
2023-03-17T01:21:10.276Z,1.95
2023-03-17T01:23:37.445Z,2.60
2023-03-17T01:26:04.763Z,2.45
2023-03-17T01:28:31.336Z,1.98
2023-03-17T01:30:57.888Z,2.38
2023-03-17T01:33:25.585Z,2.42
2023-03-17T01:35:52.486Z,2.20
2023-03-17T01:38:19.169Z,1.98
2023-03-17T01:40:49.824Z,2.58
2023-03-17T01:43:29.475Z,3.05
2023-03-17T01:46:17.523Z,2.03
2023-03-17T01:49:05.860Z,2.65
2023-03-17T01:52:14.381Z,3.10
2023-03-17T01:54:56.721Z,2.40
2023-03-17T01:57:29.956Z,2.17
2023-03-17T02:00:01.910Z,2.53
2023-03-17T02:02:32.835Z,2.53
2023-03-17T02:05:00.009Z,2.42
2023-03-17T02:07:27.632Z,2.72
2023-03-17T02:09:56.090Z,1.77
2023-03-17T02:12:24.727Z,1.70
2023-03-17T02:14:52.822Z,1.80
2023-03-17T02:17:22.146Z,2.38
2023-03-17T02:19:49.236Z,2.30
2023-03-17T02:22:17.802Z,2.03
2023-03-17T02:24:55.792Z,2.05
2023-03-17T02:27:31.148Z,2.00
2023-03-17T02:29:58.227Z,1.92
2023-03-17T02:32:24.819Z,2.45
2023-03-17T02:34:51.408Z,2.00
2023-03-17T02:37:20.154Z,2.38
2023-03-17T02:39:46.917Z,1.67
2023-03-17T02:42:14.597Z,2.13
2023-03-17T02:44:41.239Z,2.13
2023-03-17T02:47:08.627Z,2.70
2023-03-17T02:49:37.840Z,1.83
2023-03-17T02:52:05.632Z,1.85
2023-03-17T02:54:32.256Z,1.65
2023-03-17T02:56:59.901Z,2.05
2023-03-17T02:59:27.154Z,2.83
2023-03-17T03:01:53.959Z,2.25
2023-03-17T03:04:20.630Z,2.15
2023-03-17T03:06:47.803Z,1.90
2023-03-17T03:09:15.227Z,1.90
2023-03-17T03:11:42.690Z,1.88
2023-03-17T03:14:09.866Z,2.03
2023-03-17T03:16:37.366Z,2.30
2023-03-17T03:19:04.479Z,2.20
2023-03-17T03:21:31.640Z,2.60
2023-03-17T03:23:58.185Z,2.10
2023-03-17T03:26:24.885Z,1.83
2023-03-17T03:28:51.423Z,2.00
2023-03-17T03:31:18.020Z,1.90
2023-03-17T03:33:45.171Z,1.70
2023-03-17T03:36:12.079Z,2.28
2023-03-17T03:38:38.658Z,1.88
2023-03-17T03:41:06.402Z,2.13
2023-03-17T03:43:33.080Z,2.63
2023-03-17T03:45:59.831Z,1.88
2023-03-17T03:48:26.792Z,2.92
2023-03-17T03:51:01.564Z,2.60
2023-03-17T03:53:29.102Z,2.25
2023-03-17T03:55:56.494Z,1.80
2023-03-17T03:58:23.152Z,1.70
2023-03-17T04:00:49.869Z,1.25
2023-03-17T04:03:17.056Z,1.70
2023-03-17T04:05:43.672Z,1.88
2023-03-17T04:08:11.412Z,1.50
2023-03-17T04:10:38.079Z,2.20
2023-03-17T04:13:04.653Z,1.70
2023-03-17T04:15:31.275Z,1.58
2023-03-17T04:17:57.960Z,2.10
2023-03-17T04:20:24.522Z,2.05
2023-03-17T04:22:51.487Z,1.90
2023-03-17T04:25:18.153Z,2.03
2023-03-17T04:27:44.805Z,1.77
2023-03-17T04:30:17.131Z,2.45
2023-03-17T04:32:44.830Z,2.13
2023-03-17T04:35:17.678Z,1.67
2023-03-17T04:37:44.798Z,2.30
2023-03-17T04:40:13.775Z,2.13
2023-03-17T04:42:40.740Z,2.35
2023-03-17T04:45:11.323Z,1.67
2023-03-17T04:47:38.219Z,2.47
2023-03-17T04:50:05.881Z,2.00
2023-03-17T04:52:32.432Z,1.83
2023-03-17T04:54:58.954Z,2.28
2023-03-17T04:57:25.538Z,1.90
2023-03-17T04:59:52.519Z,2.10
2023-03-17T05:02:19.307Z,2.28
2023-03-17T05:04:46.755Z,2.42
2023-03-17T05:07:13.924Z,1.92
2023-03-17T05:09:40.899Z,2.05
2023-03-17T05:12:08.731Z,2.10
2023-03-17T05:14:35.608Z,2.05
2023-03-17T05:17:02.365Z,1.95
2023-03-17T05:19:28.890Z,2.55
2023-03-17T05:21:55.471Z,1.83
2023-03-17T05:24:22.068Z,2.05
2023-03-17T05:26:48.748Z,2.47
2023-03-17T05:29:16.100Z,2.60
2023-03-17T05:31:43.315Z,2.50
2023-03-17T05:34:09.927Z,2.63
2023-03-17T05:36:36.939Z,3.00
2023-03-17T05:39:04.127Z,3.00
2023-03-17T05:41:30.695Z,3.15
2023-03-17T05:43:57.303Z,3.38
2023-03-17T05:46:23.877Z,2.90
2023-03-17T05:48:50.489Z,1.92
2023-03-17T05:51:17.018Z,2.20
2023-03-17T05:53:43.886Z,2.78
2023-03-17T05:56:10.508Z,2.67
2023-03-17T05:58:37.092Z,3.03
2023-03-17T06:01:03.802Z,2.63
2023-03-17T06:03:30.631Z,3.63
2023-03-17T06:05:57.431Z,3.17
2023-03-17T06:08:24.116Z,3.25
2023-03-17T06:10:50.679Z,2.50
2023-03-17T06:13:17.220Z,1.95
2023-03-17T06:15:44.494Z,3.90
2023-03-17T06:18:11.076Z,2.72
2023-03-17T06:20:37.748Z,2.85
2023-03-17T06:23:05.776Z,3.25
2023-03-17T06:25:34.472Z,2.80
2023-03-17T06:28:03.887Z,2.10
2023-03-17T06:30:32.949Z,2.38
2023-03-17T06:33:00.294Z,3.22
2023-03-17T06:35:27.643Z,2.22
2023-03-17T06:37:54.905Z,2.53
2023-03-17T06:40:21.560Z,3.05
2023-03-17T06:42:48.280Z,2.83
2023-03-17T06:45:15.452Z,2.70
2023-03-17T06:47:42.125Z,2.05
2023-03-17T06:50:09.861Z,2.05
2023-03-17T06:52:37.267Z,2.40
2023-03-17T06:55:04.481Z,2.20
2023-03-17T06:57:31.865Z,1.85
2023-03-17T06:59:58.482Z,2.10
2023-03-17T07:02:25.140Z,2.05
2023-03-17T07:04:52.109Z,2.10
2023-03-17T07:07:20.309Z,2.28
2023-03-17T07:09:47.879Z,2.10
2023-03-17T07:12:15.023Z,2.13
2023-03-17T07:14:41.827Z,1.83
2023-03-17T07:17:12.954Z,2.22
2023-03-17T07:19:40.708Z,1.77
2023-03-17T07:22:08.153Z,1.90
2023-03-17T07:24:34.806Z,1.98
2023-03-17T07:27:01.490Z,2.30
2023-03-17T07:29:29.335Z,2.50
2023-03-17T07:31:56.080Z,1.80
2023-03-17T07:34:23.227Z,2.10
2023-03-17T07:36:49.783Z,2.05
2023-03-17T07:39:16.680Z,1.92
2023-03-17T07:41:44.297Z,2.03
2023-03-17T07:44:11.505Z,1.70
2023-03-17T07:46:39.024Z,1.90
2023-03-17T07:49:06.284Z,1.98
2023-03-17T07:51:33.055Z,1.90
2023-03-17T07:54:03.989Z,2.25
2023-03-17T07:56:32.369Z,1.90
2023-03-17T07:58:59.981Z,1.90
2023-03-17T08:01:27.925Z,1.63
2023-03-17T08:03:56.616Z,2.08
2023-03-17T08:06:25.493Z,1.45
2023-03-17T08:08:55.167Z,1.48
2023-03-17T08:11:22.078Z,1.50
2023-03-17T08:13:49.909Z,1.50
2023-03-17T08:16:16.876Z,1.38
2023-03-17T08:18:43.546Z,1.17
2023-03-17T08:21:10.824Z,1.40
2023-03-17T08:23:37.549Z,1.60
2023-03-17T08:26:05.059Z,1.50
2023-03-17T08:28:32.576Z,1.50
2023-03-17T08:31:12.726Z,1.52
2023-03-17T08:33:43.007Z,1.75
2023-03-17T08:36:11.423Z,1.50
2023-03-17T08:38:40.147Z,1.58
2023-03-17T08:41:09.568Z,2.05
2023-03-17T08:43:37.412Z,1.63
2023-03-17T08:48:48.331Z,1.63
2023-03-17T08:51:18.428Z,2.35
2023-03-17T09:01:45.561Z,2.00
2023-03-17T09:04:12.212Z,2.10
2023-03-17T09:06:44.049Z,1.70
2023-03-17T09:09:16.910Z,2.60
2023-03-17T09:11:46.605Z,1.77
2023-03-17T09:14:13.187Z,1.73
2023-03-17T09:16:40.171Z,2.03
2023-03-17T09:19:06.788Z,1.77
2023-03-17T09:21:33.465Z,1.70
2023-03-17T09:24:02.437Z,1.90
2023-03-17T09:26:29.399Z,1.98
2023-03-17T09:28:56.258Z,1.92
2023-03-17T09:31:22.962Z,1.80
2023-03-17T09:33:49.531Z,1.58
2023-03-17T09:36:16.105Z,1.63
2023-03-17T09:38:42.721Z,1.75
2023-03-17T09:41:21.236Z,2.00
2023-03-17T09:43:54.510Z,1.70
2023-03-17T09:46:40.093Z,1.55
2023-03-17T09:49:15.565Z,1.80
2023-03-17T09:51:45.204Z,1.60
2023-03-17T09:54:21.809Z,1.90
2023-03-17T09:56:54.566Z,1.95
2023-03-17T09:59:42.033Z,2.03
2023-03-17T10:02:28.720Z,1.70
2023-03-17T10:04:56.267Z,2.03
2023-03-17T10:07:41.074Z,1.90
2023-03-17T10:10:36.716Z,1.65
2023-03-17T10:13:27.566Z,1.70
2023-03-17T10:16:03.537Z,2.10
2023-03-17T10:18:44.544Z,1.55
2023-03-17T10:21:16.337Z,1.67
2023-03-17T10:23:43.394Z,1.90
2023-03-17T10:26:33.710Z,1.85
2023-03-17T10:29:04.254Z,1.70
2023-03-17T10:31:33.379Z,2.10
2023-03-17T10:34:13.373Z,2.10
2023-03-17T10:36:44.515Z,2.25
2023-03-17T10:39:14.887Z,1.65
2023-03-17T10:41:52.596Z,1.98
2023-03-17T10:44:40.600Z,2.22
2023-03-17T10:47:39.884Z,1.98
2023-03-17T10:50:32.064Z,2.10
2023-03-17T10:53:04.723Z,1.90
2023-03-17T10:55:47.594Z,1.90
2023-03-17T10:58:17.971Z,2.97
2023-03-17T11:00:56.885Z,1.60
2023-03-17T11:03:27.627Z,1.85
2023-03-17T11:05:57.603Z,1.83
2023-03-17T11:10:57.045Z,1.63
2023-03-17T11:13:30.238Z,1.90
2023-03-17T11:16:34.747Z,2.22
2023-03-17T11:22:06.624Z,1.90
2023-03-17T11:24:41.494Z,2.05
2023-03-17T11:27:47.109Z,1.63
2023-03-17T11:30:25.583Z,1.65
2023-03-17T11:33:23.276Z,1.50
2023-03-17T11:36:19.124Z,1.77
2023-03-17T11:38:52.436Z,1.92
2023-03-17T11:41:41.818Z,1.70
2023-03-17T11:44:11.290Z,1.70
2023-03-17T11:46:50.724Z,1.63
2023-03-17T11:49:24.675Z,1.50
2023-03-17T11:52:39.397Z,1.50
2023-03-17T11:57:57.485Z,1.90
2023-03-17T12:00:31.887Z,1.58
2023-03-17T12:03:31.205Z,1.88
2023-03-17T12:06:05.497Z,2.03
2023-03-17T12:08:37.834Z,1.67
2023-03-17T12:11:08.552Z,1.77
2023-03-17T12:13:41.739Z,1.77
2023-03-17T12:16:14.424Z,2.17
2023-03-17T12:18:46.289Z,1.50
2023-03-17T12:21:21.427Z,1.83
2023-03-17T12:23:58.752Z,1.70
2023-03-17T12:26:39.081Z,1.80
2023-03-17T12:29:13.564Z,1.60
2023-03-17T12:31:55.767Z,1.52
2023-03-17T12:34:41.940Z,2.17
2023-03-17T12:37:09.782Z,1.50
2023-03-17T12:39:37.633Z,1.90
2023-03-17T12:42:47.167Z,1.52
2023-03-17T12:45:35.421Z,1.77
2023-03-17T12:48:27.356Z,2.10
2023-03-17T12:51:26.223Z,2.10
2023-03-17T12:53:53.474Z,2.03
2023-03-17T12:56:30.829Z,2.00
2023-03-17T12:59:04.181Z,1.65
2023-03-17T13:01:46.044Z,1.80
2023-03-17T13:04:12.613Z,1.67
2023-03-17T13:06:43.042Z,2.00
2023-03-17T13:09:36.494Z,1.80
2023-03-17T13:12:05.724Z,1.80
2023-03-17T13:14:47.795Z,1.88
2023-03-17T13:17:17.648Z,2.00
2023-03-17T13:19:56.128Z,2.00
2023-03-17T13:22:22.652Z,1.85
2023-03-17T13:24:53.464Z,2.10
2023-03-17T13:27:32.034Z,2.03
2023-03-17T13:30:00.093Z,2.00
2023-03-17T13:32:26.749Z,1.80
2023-03-17T13:35:17.119Z,2.53
2023-03-17T13:38:17.937Z,1.90
2023-03-17T13:41:13.768Z,2.28
2023-03-17T13:43:43.630Z,2.60
2023-03-17T13:46:25.515Z,2.60
2023-03-17T13:48:54.910Z,1.98
2023-03-17T13:51:27.497Z,2.58
2023-03-17T13:53:57.414Z,2.00
2023-03-17T13:56:47.202Z,2.38
2023-03-17T13:59:39.895Z,2.30
2023-03-17T14:02:21.566Z,2.20
2023-03-17T14:05:04.261Z,2.47
2023-03-17T14:07:43.095Z,2.25
2023-03-17T14:10:18.606Z,2.08
2023-03-17T14:13:03.227Z,2.50
2023-03-17T14:15:40.717Z,3.22
2023-03-17T14:18:17.048Z,2.58
2023-03-17T14:20:58.454Z,2.53
2023-03-17T14:23:26.140Z,2.58
2023-03-17T14:25:56.662Z,2.03
2023-03-17T14:28:28.314Z,2.30
2023-03-17T14:31:00.426Z,2.78
2023-03-17T14:33:29.811Z,2.22
2023-03-17T14:35:59.535Z,2.45
2023-03-17T14:38:34.794Z,2.58
2023-03-17T14:41:04.551Z,2.13
2023-03-17T14:43:32.907Z,2.10
2023-03-17T14:46:05.819Z,2.13
2023-03-17T14:48:41.635Z,1.75
2023-03-17T14:51:43.940Z,1.73
2023-03-17T14:54:14.559Z,2.10
2023-03-17T14:56:43.840Z,1.90
2023-03-17T14:59:31.050Z,2.20
2023-03-17T15:02:04.213Z,1.92
2023-03-17T15:04:33.803Z,1.75
2023-03-17T15:07:07.589Z,1.70
2023-03-17T15:09:34.249Z,1.67
2023-03-17T15:12:27.496Z,2.17
2023-03-17T15:14:58.479Z,2.23
2023-03-17T15:17:32.872Z,2.08
2023-03-17T15:20:07.591Z,2.10
2023-03-17T15:22:37.069Z,1.73
2023-03-17T15:25:16.583Z,1.75
2023-03-17T15:27:44.345Z,1.92
2023-03-17T15:30:11.840Z,1.92
2023-03-17T15:32:39.729Z,2.10
2023-03-17T15:35:08.511Z,2.20
2023-03-17T15:37:35.510Z,2.22
2023-03-17T15:40:03.461Z,1.90
2023-03-17T15:42:34.668Z,2.30
2023-03-17T15:45:02.004Z,2.15
2023-03-17T15:47:31.455Z,1.90
2023-03-17T15:50:01.950Z,1.75
2023-03-17T15:52:28.949Z,1.90
2023-03-17T15:54:58.534Z,2.20
2023-03-17T15:57:27.156Z,1.92
2023-03-17T15:59:53.927Z,2.33
2023-03-17T16:02:27.980Z,2.08
2023-03-17T16:04:55.157Z,2.30
2023-03-17T16:07:22.482Z,2.25
2023-03-17T16:09:49.699Z,2.20
2023-03-17T16:12:16.324Z,2.17
2023-03-17T16:14:43.284Z,2.45
2023-03-17T16:17:29.997Z,2.00
2023-03-17T16:19:57.392Z,2.13
2023-03-17T16:22:43.633Z,2.05
2023-03-17T16:25:21.490Z,2.20
2023-03-17T16:27:49.075Z,2.03
2023-03-17T16:30:21.402Z,2.17
2023-03-17T16:32:48.961Z,2.38
2023-03-17T16:35:25.958Z,1.98
2023-03-17T16:37:54.277Z,2.17
2023-03-17T16:40:33.343Z,2.35
2023-03-17T16:43:00.366Z,2.25
2023-03-17T16:45:30.033Z,2.30
2023-03-17T16:47:57.285Z,2.63
2023-03-17T16:50:26.610Z,2.28
2023-03-17T16:52:54.112Z,2.55
2023-03-17T16:55:22.085Z,2.20
2023-03-17T16:57:51.737Z,2.53
2023-03-17T17:00:22.224Z,1.95
2023-03-17T17:02:49.839Z,2.35
2023-03-17T17:05:22.223Z,2.17
2023-03-17T17:07:50.840Z,2.53
2023-03-17T17:10:19.859Z,3.22
2023-03-17T17:12:47.369Z,2.33
2023-03-17T17:15:19.972Z,2.22
2023-03-17T17:17:53.940Z,2.38
2023-03-17T17:20:22.053Z,2.35
2023-03-17T17:22:49.318Z,2.40
2023-03-17T17:25:17.144Z,2.15
2023-03-17T17:27:46.041Z,2.80
2023-03-17T17:30:16.690Z,2.67
2023-03-17T17:32:44.287Z,2.55
2023-03-17T17:35:11.867Z,2.58
2023-03-17T17:37:38.960Z,2.50
2023-03-17T17:40:07.737Z,2.53
2023-03-17T17:42:35.523Z,2.70
2023-03-17T17:45:02.261Z,2.08
2023-03-17T17:47:32.192Z,2.45
2023-03-17T17:49:59.446Z,2.60
2023-03-17T17:52:26.103Z,2.28
2023-03-17T17:54:52.721Z,2.67
2023-03-17T17:57:19.488Z,2.80
2023-03-17T17:59:46.140Z,3.97
2023-03-17T18:02:12.906Z,2.70
2023-03-17T18:04:39.564Z,2.28
2023-03-17T18:07:06.186Z,2.35
2023-03-17T18:09:32.907Z,3.00
2023-03-17T18:11:59.605Z,2.97
2023-03-17T18:14:26.582Z,3.17
2023-03-17T18:16:53.473Z,2.20
2023-03-17T18:19:20.299Z,1.90
2023-03-17T18:21:47.094Z,2.47
2023-03-17T18:24:14.910Z,2.83
2023-03-17T18:26:41.948Z,2.28
2023-03-17T18:29:09.484Z,2.40
2023-03-17T18:31:43.809Z,3.03
2023-03-17T18:34:20.155Z,2.63
2023-03-17T18:36:48.014Z,3.28
2023-03-17T18:39:15.897Z,3.08
2023-03-17T18:41:43.746Z,3.47
2023-03-17T18:44:10.440Z,3.22
2023-03-17T18:46:38.148Z,3.58
2023-03-17T18:49:05.840Z,3.22
2023-03-17T18:51:33.081Z,3.47
2023-03-17T18:54:00.040Z,3.17
2023-03-17T18:56:29.245Z,3.60
2023-03-17T18:58:56.986Z,3.33
2023-03-17T19:01:24.205Z,3.55
2023-03-17T19:03:51.122Z,3.10
2023-03-17T19:06:21.103Z,2.88
2023-03-17T19:08:48.313Z,3.35
2023-03-17T19:11:18.424Z,3.50
2023-03-17T19:13:45.617Z,2.92
2023-03-17T19:16:12.449Z,2.80
2023-03-17T19:18:41.937Z,2.75
2023-03-17T19:21:10.314Z,2.33
2023-03-17T19:23:38.278Z,3.20
2023-03-17T19:26:05.916Z,2.92
2023-03-17T19:28:33.261Z,2.92
2023-03-17T19:30:59.969Z,2.63
2023-03-17T19:33:26.778Z,2.63
2023-03-17T19:35:57.043Z,2.50
2023-03-17T19:38:24.685Z,2.67
2023-03-17T19:40:52.971Z,2.70
2023-03-17T19:43:36.863Z,2.72
2023-03-17T19:46:06.551Z,2.53
2023-03-17T19:48:33.576Z,2.60
2023-03-17T19:51:01.500Z,2.78
2023-03-17T19:53:28.086Z,2.13
2023-03-17T19:55:56.784Z,2.50
2023-03-17T19:58:23.449Z,2.58
2023-03-17T20:00:50.052Z,2.50
2023-03-17T20:03:16.673Z,2.40
2023-03-17T20:05:45.773Z,2.45
2023-03-17T20:08:12.344Z,2.88
2023-03-17T20:10:39.080Z,2.65
2023-03-17T20:13:06.496Z,2.60
2023-03-17T20:15:33.744Z,2.67
2023-03-17T20:18:00.790Z,2.53
2023-03-17T20:20:27.524Z,2.78
2023-03-17T20:22:54.212Z,2.60
2023-03-17T20:25:21.872Z,2.97
2023-03-17T20:27:49.487Z,2.30
2023-03-17T20:30:16.236Z,2.38
2023-03-17T20:32:44.250Z,2.65
2023-03-17T20:35:11.198Z,2.30
2023-03-17T20:37:38.802Z,2.92
2023-03-17T20:40:08.423Z,1.95
2023-03-17T20:42:35.329Z,2.70
2023-03-17T20:45:03.577Z,2.80
2023-03-17T20:47:30.819Z,3.20
2023-03-17T20:49:58.949Z,2.25
2023-03-17T20:52:29.509Z,2.42
2023-03-17T20:54:56.596Z,2.63
2023-03-17T20:57:23.173Z,2.67
2023-03-17T20:59:51.330Z,1.92
2023-03-17T21:02:19.014Z,2.47
2023-03-17T21:04:48.146Z,1.92
2023-03-17T21:07:21.490Z,1.92
2023-03-17T21:09:48.564Z,1.83
2023-03-17T21:12:18.155Z,2.17
2023-03-17T21:14:46.596Z,2.03
2023-03-17T21:17:13.528Z,1.80
2023-03-17T21:19:40.616Z,1.90
2023-03-17T21:22:07.233Z,2.63
2023-03-17T21:24:36.354Z,2.05
2023-03-17T21:27:05.881Z,2.25
2023-03-17T21:29:33.943Z,2.20
2023-03-17T21:32:02.043Z,1.92
2023-03-17T21:34:30.735Z,1.60
2023-03-17T21:36:58.519Z,2.13
2023-03-17T21:39:29.271Z,1.80
2023-03-17T21:41:56.732Z,2.38
2023-03-17T21:44:23.518Z,2.38
2023-03-17T21:46:50.883Z,1.95
2023-03-17T21:49:18.887Z,2.15
2023-03-17T21:51:46.804Z,2.42
2023-03-17T21:54:14.358Z,2.20
2023-03-17T21:56:42.704Z,2.03
2023-03-17T21:59:14.024Z,2.55
2023-03-17T22:01:41.817Z,2.05
2023-03-17T22:04:09.226Z,2.00
2023-03-17T22:06:36.099Z,1.92
2023-03-17T22:09:04.422Z,2.10
2023-03-17T22:11:31.405Z,2.50
2023-03-17T22:13:58.671Z,2.10
2023-03-17T22:16:25.470Z,2.25
2023-03-17T22:18:52.735Z,2.65
2023-03-17T22:21:20.499Z,2.72
2023-03-17T22:23:47.876Z,2.00
2023-03-17T22:26:16.857Z,1.83
2023-03-17T22:28:44.775Z,2.40
2023-03-17T22:31:17.157Z,2.20
2023-03-17T22:33:44.172Z,1.88
2023-03-17T22:36:11.738Z,1.85
2023-03-17T22:38:38.398Z,2.53
2023-03-17T22:41:08.847Z,2.28
2023-03-17T22:43:36.779Z,2.40
2023-03-17T22:46:03.759Z,2.67
2023-03-17T22:48:32.690Z,2.40
2023-03-17T22:51:03.475Z,2.25
2023-03-17T22:53:31.570Z,1.70
2023-03-17T22:55:58.464Z,1.85
2023-03-17T22:58:26.240Z,2.72
2023-03-17T23:00:53.882Z,2.10
2023-03-17T23:03:21.162Z,2.10
2023-03-17T23:05:49.865Z,2.17
2023-03-17T23:08:17.464Z,2.28
2023-03-17T23:10:44.051Z,2.10
2023-03-17T23:13:11.452Z,2.15
2023-03-17T23:15:38.156Z,2.97
2023-03-17T23:18:05.323Z,1.88
2023-03-17T23:20:33.182Z,2.20
2023-03-17T23:23:00.114Z,2.50
2023-03-17T23:25:26.782Z,2.13
2023-03-17T23:27:53.373Z,2.40
2023-03-17T23:30:21.254Z,2.17
2023-03-17T23:32:49.270Z,2.88
2023-03-17T23:35:16.496Z,2.13
2023-03-17T23:37:43.254Z,2.08
2023-03-17T23:40:13.724Z,2.08
2023-03-17T23:42:40.463Z,2.00
2023-03-17T23:45:08.642Z,1.85
2023-03-17T23:47:35.213Z,1.92
2023-03-17T23:50:02.277Z,2.42
2023-03-17T23:52:28.855Z,2.50
2023-03-17T23:54:55.437Z,2.05
2023-03-17T23:57:22.898Z,2.42
2023-03-17T23:59:49.801Z,1.80
